Archival Weather

Chicago O'Hare International

Chicago, Illinois (KORD)

Report from: Sunday, November 19, 2023 5:51 AM CST
Current time: Sunday, February 25, 2024 3:49 PM CST

Current weather – Weather history – Daily summaries
Weather forecast

Temperature2.8°C (37.0°F)
Wind chill1.4°C (34.5°F)
Dew point-2.2°C (28.0°F)
Winds 3 kts (1.5 m/s, 3.5 mph) West-Northwest (290°)
Visibility10 mi. (16.1 km)
Clouds Sky clear
Altimeter30.02 in.Hg (1017 mB)
Relative humidity70 %
Density altitude-1,522 ft. (-464 m)
Sea-level pressure101.7 kPa (1017 mB, 30.03 in.Hg)
Max temp last 6 hours5.6°C (42.1°F)
Min temp last 6 hours1.7°C (35.1°F)
Remarks Automated weather observing station with precipitation discriminator
Pressure rising more quickly
Flight conditions Visual Meteorological Conditions
Raw dataKORD 191151Z 29003KT 10SM CLR 03/M02 A3002 RMK AO2 SLP168 T00281022 10056 20017 53012
An error has occurred. This application may no longer respond until reloaded. Reload 🗙